sensor_id;sensor_type;location;lat;lon;timestamp;pressure;altitude;pressure_sealevel;temperature;humidity
60337;BME280;46978;50.288;28.624;2023-05-09T00:00:43;100260.86;;;0.19;79.95
60337;BME280;46978;50.288;28.624;2023-05-09T00:01:45;100257.42;;;0.18;79.74
60337;BME280;46978;50.288;28.624;2023-05-09T00:02:46;100253.15;;;0.17;79.70
60337;BME280;46978;50.288;28.624;2023-05-09T00:03:51;100256.50;;;0.16;79.48
60337;BME280;46978;50.288;28.624;2023-05-09T00:04:52;100252.14;;;0.14;79.70
60337;BME280;46978;50.288;28.624;2023-05-09T00:05:54;100248.73;;;0.13;79.67
60337;BME280;46978;50.288;28.624;2023-05-09T00:06:55;100257.19;;;0.12;79.67
60337;BME280;46978;50.288;28.624;2023-05-09T00:07:57;100251.16;;;0.10;79.96
60337;BME280;46978;50.288;28.624;2023-05-09T00:08:58;100251.96;;;0.09;80.07
60337;BME280;46978;50.288;28.624;2023-05-09T00:10:00;100253.66;;;0.09;80.67
60337;BME280;46978;50.288;28.624;2023-05-09T00:11:02;100248.55;;;0.09;80.83
60337;BME280;46978;50.288;28.624;2023-05-09T00:12:04;100245.14;;;0.08;80.90
60337;BME280;46978;50.288;28.624;2023-05-09T00:13:06;100249.29;;;0.06;81.03
60337;BME280;46978;50.288;28.624;2023-05-09T00:14:08;100255.23;;;0.05;80.33
60337;BME280;46978;50.288;28.624;2023-05-09T00:15:10;100248.31;;;0.03;79.77
60337;BME280;46978;50.288;28.624;2023-05-09T00:16:13;100252.56;;;0.02;80.82
60337;BME280;46978;50.288;28.624;2023-05-09T00:17:15;100249.09;;;0.00;80.85
60337;BME280;46978;50.288;28.624;2023-05-09T00:18:16;100249.89;;;-0.01;81.04
60337;BME280;46978;50.288;28.624;2023-05-09T00:19:18;100249.03;;;-0.02;81.77
60337;BME280;46978;50.288;28.624;2023-05-09T00:20:20;100246.48;;;-0.02;81.58
60337;BME280;46978;50.288;28.624;2023-05-09T00:21:22;100246.23;;;-0.08;81.04
60337;BME280;46978;50.288;28.624;2023-05-09T00:22:23;100246.23;;;-0.08;81.04
60337;BME280;46978;50.288;28.624;2023-05-09T00:23:25;100246.98;;;-0.10;81.12
60337;BME280;46978;50.288;28.624;2023-05-09T00:24:26;100246.92;;;-0.12;81.31
60337;BME280;46978;50.288;28.624;2023-05-09T00:25:28;100245.16;;;-0.13;81.60
60337;BME280;46978;50.288;28.624;2023-05-09T00:26:30;100251.10;;;-0.14;81.02
60337;BME280;46978;50.288;28.624;2023-05-09T00:27:32;100248.48;;;-0.15;81.24
60337;BME280;46978;50.288;28.624;2023-05-09T00:28:33;100245.82;;;-0.19;81.08
60337;BME280;46978;50.288;28.624;2023-05-09T00:29:35;100249.97;;;-0.21;81.32
60337;BME280;46978;50.288;28.624;2023-05-09T00:30:36;100243.95;;;-0.23;81.56
60337;BME280;46978;50.288;28.624;2023-05-09T00:31:38;100245.58;;;-0.25;81.92
60337;BME280;46978;50.288;28.624;2023-05-09T00:32:39;100253.11;;;-0.28;81.03
60337;BME280;46978;50.288;28.624;2023-05-09T00:33:41;100256.39;;;-0.30;80.67
60337;BME280;46978;50.288;28.624;2023-05-09T00:34:43;100252.86;;;-0.34;80.91
60337;BME280;46978;50.288;28.624;2023-05-09T00:35:44;100248.50;;;-0.37;80.88
60337;BME280;46978;50.288;28.624;2023-05-09T00:36:46;100259.49;;;-0.38;82.02
60337;BME280;46978;50.288;28.624;2023-05-09T00:37:48;100255.28;;;-0.37;82.62
60337;BME280;46978;50.288;28.624;2023-05-09T00:38:49;100251.78;;;-0.39;82.82
60337;BME280;46978;50.288;28.624;2023-05-09T00:39:51;100250.06;;;-0.40;82.57
60337;BME280;46978;50.288;28.624;2023-05-09T00:40:53;100251.72;;;-0.41;82.92
60337;BME280;46978;50.288;28.624;2023-05-09T00:41:55;100253.41;;;-0.41;83.21
60337;BME280;46978;50.288;28.624;2023-05-09T00:42:59;100250.86;;;-0.41;83.53
60337;BME280;46978;50.288;28.624;2023-05-09T00:44:00;100249.11;;;-0.42;82.98
60337;BME280;46978;50.288;28.624;2023-05-09T00:45:02;100253.23;;;-0.46;82.56
60337;BME280;46978;50.288;28.624;2023-05-09T00:46:04;100253.23;;;-0.46;83.36
60337;BME280;46978;50.288;28.624;2023-05-09T00:47:06;100252.37;;;-0.46;83.76
60337;BME280;46978;50.288;28.624;2023-05-09T00:48:08;100248.00;;;-0.49;83.06
60337;BME280;46978;50.288;28.624;2023-05-09T00:49:13;100252.24;;;-0.49;82.39
60337;BME280;46978;50.288;28.624;2023-05-09T00:50:15;100249.56;;;-0.52;83.66
60337;BME280;46978;50.288;28.624;2023-05-09T00:51:17;100249.50;;;-0.54;82.84
60337;BME280;46978;50.288;28.624;2023-05-09T00:52:18;100256.20;;;-0.56;83.29
60337;BME280;46978;50.288;28.624;2023-05-09T00:53:20;100255.27;;;-0.58;83.00
60337;BME280;46978;50.288;28.624;2023-05-09T00:54:22;100252.73;;;-0.58;83.98
60337;BME280;46978;50.288;28.624;2023-05-09T00:55:25;100251.03;;;-0.58;84.53
60337;BME280;46978;50.288;28.624;2023-05-09T00:56:27;100248.48;;;-0.58;84.43
60337;BME280;46978;50.288;28.624;2023-05-09T00:57:28;100259.52;;;-0.59;83.74
60337;BME280;46978;50.288;28.624;2023-05-09T00:58:30;100251.73;;;-0.62;83.51
60337;BME280;46978;50.288;28.624;2023-05-09T00:59:32;100253.39;;;-0.62;83.41
60337;BME280;46978;50.288;28.624;2023-05-09T01:00:33;100255.88;;;-0.64;82.79
60337;BME280;46978;50.288;28.624;2023-05-09T01:01:35;100259.20;;;-0.66;82.49
60337;BME280;46978;50.288;28.624;2023-05-09T01:02:40;100257.44;;;-0.67;82.85
60337;BME280;46978;50.288;28.624;2023-05-09T01:03:43;100263.34;;;-0.68;83.38
60337;BME280;46978;50.288;28.624;2023-05-09T01:04:45;100254.77;;;-0.70;83.12
60337;BME280;46978;50.288;28.624;2023-05-09T01:05:56;100257.25;;;-0.72;83.30
60337;BME280;46978;50.288;28.624;2023-05-09T01:07:20;100259.73;;;-0.74;83.46
60337;BME280;46978;50.288;28.624;2023-05-09T01:08:33;100260.53;;;-0.75;83.65
60337;BME280;46978;50.288;28.624;2023-05-09T01:10:37;100265.56;;;-0.76;83.58
60337;BME280;46978;50.288;28.624;2023-05-09T01:11:08;100263.02;;;-0.76;83.83
60337;BME280;46978;50.288;28.624;2023-05-09T01:16:31;100264.64;;;-0.78;84.02
60337;BME280;46978;50.288;28.624;2023-05-09T01:17:53;100260.34;;;-0.79;84.29
60337;BME280;46978;50.288;28.624;2023-05-09T01:19:04;100258.62;;;-0.80;84.70
60337;BME280;46978;50.288;28.624;2023-05-09T01:21:20;100262.69;;;-0.84;84.76
60337;BME280;46978;50.288;28.624;2023-05-09T01:22:31;100261.04;;;-0.83;85.21
60337;BME280;46978;50.288;28.624;2023-05-09T01:24:58;100261.77;;;-0.86;84.95
60337;BME280;46978;50.288;28.624;2023-05-09T01:27:22;100255.68;;;-0.89;84.77
60337;BME280;46978;50.288;28.624;2023-05-09T01:29:54;100259.69;;;-0.95;84.67
60337;BME280;46978;50.288;28.624;2023-05-09T01:30:54;100262.23;;;-0.95;85.17
60337;BME280;46978;50.288;28.624;2023-05-09T01:31:56;100273.25;;;-0.96;85.11
60337;BME280;46978;50.288;28.624;2023-05-09T01:33:00;100266.41;;;-0.97;84.94
60337;BME280;46978;50.288;28.624;2023-05-09T01:34:04;100264.59;;;-0.99;85.16
60337;BME280;46978;50.288;28.624;2023-05-09T01:35:10;100258.56;;;-1.01;85.21
60337;BME280;46978;50.288;28.624;2023-05-09T01:36:15;100264.45;;;-1.02;85.21
60337;BME280;46978;50.288;28.624;2023-05-09T01:37:18;100265.28;;;-1.03;84.94
60337;BME280;46978;50.288;28.624;2023-05-09T01:38:22;100260.92;;;-1.06;85.21
60337;BME280;46978;50.288;28.624;2023-05-09T01:39:26;100262.60;;;-1.06;85.42
60337;BME280;46978;50.288;28.624;2023-05-09T01:40:30;100265.95;;;-1.07;85.57
60337;BME280;46978;50.288;28.624;2023-05-09T01:41:35;100266.67;;;-1.10;85.32
60337;BME280;46978;50.288;28.624;2023-05-09T01:42:50;100263.20;;;-1.12;84.82
60337;BME280;46978;50.288;28.624;2023-05-09T01:43:53;100262.34;;;-1.13;85.72
60337;BME280;46978;50.288;28.624;2023-05-09T01:44:56;100264.82;;;-1.14;86.05
60337;BME280;46978;50.288;28.624;2023-05-09T01:45:59;100265.68;;;-1.14;86.44
60337;BME280;46978;50.288;28.624;2023-05-09T01:47:03;100263.92;;;-1.15;85.73
60337;BME280;46978;50.288;28.624;2023-05-09T01:48:06;100266.41;;;-1.16;85.89
60337;BME280;46978;50.288;28.624;2023-05-09T01:49:09;100263.80;;;-1.18;85.56
60337;BME280;46978;50.288;28.624;2023-05-09T01:50:12;100267.95;;;-1.20;85.36
60337;BME280;46978;50.288;28.624;2023-05-09T01:51:15;100261.11;;;-1.21;85.84
60337;BME280;46978;50.288;28.624;2023-05-09T01:52:18;100263.66;;;-1.21;85.71
60337;BME280;46978;50.288;28.624;2023-05-09T01:53:21;100270.38;;;-1.23;86.18
60337;BME280;46978;50.288;28.624;2023-05-09T01:54:25;100267.89;;;-1.21;85.98
60337;BME280;46978;50.288;28.624;2023-05-09T01:55:30;100258.43;;;-1.24;85.93
60337;BME280;46978;50.288;28.624;2023-05-09T01:56:33;100263.45;;;-1.26;86.12
60337;BME280;46978;50.288;28.624;2023-05-09T01:57:37;100265.21;;;-1.24;86.79
60337;BME280;46978;50.288;28.624;2023-05-09T01:58:40;100258.36;;;-1.26;86.72
60337;BME280;46978;50.288;28.624;2023-05-09T01:59:43;100251.55;;;-1.27;86.48
60337;BME280;46978;50.288;28.624;2023-05-09T02:00:47;100265.94;;;-1.27;87.51
60337;BME280;46978;50.288;28.624;2023-05-09T02:01:48;100265.94;;;-1.27;87.51
60337;BME280;46978;50.288;28.624;2023-05-09T02:02:51;100263.39;;;-1.27;86.77
60337;BME280;46978;50.288;28.624;2023-05-09T02:03:53;100263.32;;;-1.29;86.98
60337;BME280;46978;50.288;28.624;2023-05-09T02:04:56;100259.05;;;-1.30;87.00
60337;BME280;46978;50.288;28.624;2023-05-09T02:06:00;100267.55;;;-1.29;86.16
60337;BME280;46978;50.288;28.624;2023-05-09T02:07:05;100263.22;;;-1.32;86.37
60337;BME280;46978;50.288;28.624;2023-05-09T02:08:07;100262.26;;;-1.34;86.66
60337;BME280;46978;50.288;28.624;2023-05-09T02:09:10;100262.26;;;-1.34;86.91
60337;BME280;46978;50.288;28.624;2023-05-09T02:10:14;100261.33;;;-1.36;86.38
60337;BME280;46978;50.288;28.624;2023-05-09T02:11:16;100273.20;;;-1.36;86.15
60337;BME280;46978;50.288;28.624;2023-05-09T02:12:18;100267.14;;;-1.38;85.64
60337;BME280;46978;50.288;28.624;2023-05-09T02:13:20;100267.97;;;-1.39;86.05
60337;BME280;46978;50.288;28.624;2023-05-09T02:14:21;100264.53;;;-1.40;86.80
60337;BME280;46978;50.288;28.624;2023-05-09T02:15:23;100268.83;;;-1.39;86.92
60337;BME280;46978;50.288;28.624;2023-05-09T02:16:25;100263.67;;;-1.40;86.35
60337;BME280;46978;50.288;28.624;2023-05-09T02:17:27;100267.08;;;-1.40;86.64
60337;BME280;46978;50.288;28.624;2023-05-09T02:18:29;100270.45;;;-1.41;86.14
60337;BME280;46978;50.288;28.624;2023-05-09T02:19:32;100267.91;;;-1.41;86.24
60337;BME280;46978;50.288;28.624;2023-05-09T02:20:34;100268.70;;;-1.42;86.84
60337;BME280;46978;50.288;28.624;2023-05-09T02:21:36;100264.47;;;-1.41;86.83
60337;BME280;46978;50.288;28.624;2023-05-09T02:22:39;100264.53;;;-1.40;87.76
60337;BME280;46978;50.288;28.624;2023-05-09T02:23:41;100264.60;;;-1.38;88.92
60337;BME280;46978;50.288;28.624;2023-05-09T02:24:43;100262.19;;;-1.35;89.08
60337;BME280;46978;50.288;28.624;2023-05-09T02:25:45;100266.48;;;-1.34;88.56
60337;BME280;46978;50.288;28.624;2023-05-09T02:26:47;100258.78;;;-1.36;88.69
60337;BME280;46978;50.288;28.624;2023-05-09T02:27:50;100259.78;;;-1.32;89.21
60337;BME280;46978;50.288;28.624;2023-05-09T02:28:53;100264.02;;;-1.33;88.99
60337;BME280;46978;50.288;28.624;2023-05-09T02:29:55;100258.06;;;-1.33;88.46
60337;BME280;46978;50.288;28.624;2023-05-09T02:30:59;100260.61;;;-1.33;87.84
60337;BME280;46978;50.288;28.624;2023-05-09T02:32:03;100258.06;;;-1.33;87.98
60337;BME280;46978;50.288;28.624;2023-05-09T02:33:07;100261.40;;;-1.34;87.86
60337;BME280;46978;50.288;28.624;2023-05-09T02:34:11;100253.83;;;-1.33;88.29
60337;BME280;46978;50.288;28.624;2023-05-09T02:35:15;100256.38;;;-1.33;88.54
60337;BME280;46978;50.288;28.624;2023-05-09T02:36:18;100256.38;;;-1.33;88.36
60337;BME280;46978;50.288;28.624;2023-05-09T02:37:21;100260.67;;;-1.32;88.25
60337;BME280;46978;50.288;28.624;2023-05-09T02:38:23;100255.58;;;-1.32;87.79
60337;BME280;46978;50.288;28.624;2023-05-09T02:39:25;100260.67;;;-1.32;87.88
60337;BME280;46978;50.288;28.624;2023-05-09T02:40:28;100259.84;;;-1.31;87.70
60337;BME280;46978;50.288;28.624;2023-05-09T02:41:30;100257.30;;;-1.31;87.10
60337;BME280;46978;50.288;28.624;2023-05-09T02:42:32;100261.53;;;-1.31;87.14
60337;BME280;46978;50.288;28.624;2023-05-09T02:43:33;100261.53;;;-1.31;86.78
60337;BME280;46978;50.288;28.624;2023-05-09T02:44:35;100264.14;;;-1.30;86.48
60337;BME280;46978;50.288;28.624;2023-05-09T02:45:37;100260.78;;;-1.29;86.40
60337;BME280;46978;50.288;28.624;2023-05-09T02:46:38;100261.80;;;-1.25;86.94
60337;BME280;46978;50.288;28.624;2023-05-09T02:47:40;100259.45;;;-1.20;86.76
60337;BME280;46978;50.288;28.624;2023-05-09T02:48:42;100254.77;;;-1.11;87.48
60337;BME280;46978;50.288;28.624;2023-05-09T02:49:43;100254.77;;;-1.11;87.48
60337;BME280;46978;50.288;28.624;2023-05-09T02:50:45;100256.88;;;-1.01;87.97
60337;BME280;46978;50.288;28.624;2023-05-09T02:51:47;100259.89;;;-0.90;87.68
60337;BME280;46978;50.288;28.624;2023-05-09T02:52:48;100250.14;;;-0.79;87.27
60337;BME280;46978;50.288;28.624;2023-05-09T02:53:50;100250.59;;;-0.68;86.70
60337;BME280;46978;50.288;28.624;2023-05-09T02:54:51;100250.17;;;-0.58;86.66
60337;BME280;46978;50.288;28.624;2023-05-09T02:55:53;100254.91;;;-0.46;86.79
60337;BME280;46978;50.288;28.624;2023-05-09T02:56:55;100255.53;;;-0.31;86.24
60337;BME280;46978;50.288;28.624;2023-05-09T02:57:56;100253.66;;;-0.14;86.19
60337;BME280;46978;50.288;28.624;2023-05-09T02:58:58;100251.84;;;0.06;85.98
60337;BME280;46978;50.288;28.624;2023-05-09T02:59:59;100256.91;;;0.27;85.39
60337;BME280;46978;50.288;28.624;2023-05-09T03:01:01;100249.99;;;0.47;84.94
60337;BME280;46978;50.288;28.624;2023-05-09T03:02:03;100251.69;;;0.71;84.25
60337;BME280;46978;50.288;28.624;2023-05-09T03:03:04;100249.95;;;0.94;83.48
60337;BME280;46978;50.288;28.624;2023-05-09T03:04:06;100243.86;;;1.15;82.45
60337;BME280;46978;50.288;28.624;2023-05-09T03:05:08;100244.45;;;1.33;81.71
60337;BME280;46978;50.288;28.624;2023-05-09T03:06:10;100248.41;;;1.49;81.50
60337;BME280;46978;50.288;28.624;2023-05-09T03:07:11;100237.83;;;1.66;81.01
60337;BME280;46978;50.288;28.624;2023-05-09T03:08:13;100251.20;;;1.84;80.79
60337;BME280;46978;50.288;28.624;2023-05-09T03:09:14;100247.55;;;2.03;79.69
60337;BME280;46978;50.288;28.624;2023-05-09T03:10:16;100251.56;;;2.24;78.97
60337;BME280;46978;50.288;28.624;2023-05-09T03:11:18;100251.25;;;2.42;77.86
60337;BME280;46978;50.288;28.624;2023-05-09T03:12:19;100246.58;;;2.57;77.12
60337;BME280;46978;50.288;28.624;2023-05-09T03:13:21;100248.67;;;2.72;76.12
60337;BME280;46978;50.288;28.624;2023-05-09T03:14:23;100246.62;;;2.91;76.17
60337;BME280;46978;50.288;28.624;2023-05-09T03:15:24;100249.75;;;3.12;75.47
60337;BME280;46978;50.288;28.624;2023-05-09T03:16:26;100249.45;;;3.33;74.58
60337;BME280;46978;50.288;28.624;2023-05-09T03:17:28;100250.81;;;3.54;73.34
60337;BME280;46978;50.288;28.624;2023-05-09T03:18:29;100252.97;;;3.72;72.85
60337;BME280;46978;50.288;28.624;2023-05-09T03:19:31;100254.33;;;3.94;71.97
60337;BME280;46978;50.288;28.624;2023-05-09T03:20:33;100258.96;;;4.10;71.08
60337;BME280;46978;50.288;28.624;2023-05-09T03:21:34;100255.02;;;4.25;70.38
60337;BME280;46978;50.288;28.624;2023-05-09T03:22:36;100256.94;;;4.35;70.18
60337;BME280;46978;50.288;28.624;2023-05-09T03:23:38;100255.41;;;4.43;69.62
60337;BME280;46978;50.288;28.624;2023-05-09T03:24:40;100262.46;;;4.54;69.28
60337;BME280;46978;50.288;28.624;2023-05-09T03:25:41;100254.17;;;4.67;68.54
60337;BME280;46978;50.288;28.624;2023-05-09T03:26:43;100262.23;;;4.84;67.74
60337;BME280;46978;50.288;28.624;2023-05-09T03:27:45;100261.72;;;5.02;66.76
60337;BME280;46978;50.288;28.624;2023-05-09T03:28:46;100262.06;;;5.20;66.12
60337;BME280;46978;50.288;28.624;2023-05-09T03:29:48;100256.38;;;5.40;65.39
60337;BME280;46978;50.288;28.624;2023-05-09T03:30:49;100260.13;;;5.59;64.97
60337;BME280;46978;50.288;28.624;2023-05-09T03:31:51;100258.71;;;5.77;64.54
60337;BME280;46978;50.288;28.624;2023-05-09T03:32:52;100259.85;;;5.96;64.07
60337;BME280;46978;50.288;28.624;2023-05-09T03:33:54;100255.81;;;6.12;63.37
60337;BME280;46978;50.288;28.624;2023-05-09T03:34:56;100262.95;;;6.30;62.34
60337;BME280;46978;50.288;28.624;2023-05-09T03:35:57;100259.73;;;6.46;61.78
60337;BME280;46978;50.288;28.624;2023-05-09T03:36:59;100264.27;;;6.66;61.19
60337;BME280;46978;50.288;28.624;2023-05-09T03:38:00;100265.23;;;6.75;59.74
60337;BME280;46978;50.288;28.624;2023-05-09T03:39:02;100263.63;;;6.84;59.50
60337;BME280;46978;50.288;28.624;2023-05-09T03:40:05;100276.69;;;6.97;59.60
60337;BME280;46978;50.288;28.624;2023-05-09T03:41:07;100263.08;;;7.14;59.51
60337;BME280;46978;50.288;28.624;2023-05-09T03:42:08;100264.13;;;7.30;59.19
60337;BME280;46978;50.288;28.624;2023-05-09T03:43:10;100267.70;;;7.46;58.48
60337;BME280;46978;50.288;28.624;2023-05-09T03:44:11;100263.54;;;7.63;58.00
60337;BME280;46978;50.288;28.624;2023-05-09T03:45:13;100261.94;;;7.76;57.52
60337;BME280;46978;50.288;28.624;2023-05-09T03:46:14;100270.66;;;7.92;57.61
60337;BME280;46978;50.288;28.624;2023-05-09T03:47:16;100267.26;;;8.01;56.01
60337;BME280;46978;50.288;28.624;2023-05-09T03:48:18;100267.31;;;8.08;56.20
60337;BME280;46978;50.288;28.624;2023-05-09T03:49:19;100272.56;;;8.21;55.95
60337;BME280;46978;50.288;28.624;2023-05-09T03:50:21;100270.93;;;8.34;55.91
60337;BME280;46978;50.288;28.624;2023-05-09T03:51:23;100279.67;;;8.53;55.22
60337;BME280;46978;50.288;28.624;2023-05-09T03:52:24;100267.66;;;8.69;54.70
60337;BME280;46978;50.288;28.624;2023-05-09T03:53:26;100270.30;;;8.83;54.62
60337;BME280;46978;50.288;28.624;2023-05-09T03:54:27;100270.34;;;8.93;52.79
60337;BME280;46978;50.288;28.624;2023-05-09T03:55:29;100268.67;;;9.08;53.26
60337;BME280;46978;50.288;28.624;2023-05-09T03:56:31;100269.56;;;9.21;52.09
60337;BME280;46978;50.288;28.624;2023-05-09T03:57:34;100260.92;;;9.29;51.10
60337;BME280;46978;50.288;28.624;2023-05-09T03:58:35;100267.86;;;9.47;51.13
60337;BME280;46978;50.288;28.624;2023-05-09T03:59:37;100260.95;;;9.62;50.21
60337;BME280;46978;50.288;28.624;2023-05-09T04:00:39;100267.87;;;9.74;50.65
60337;BME280;46978;50.288;28.624;2023-05-09T04:01:41;100272.20;;;9.87;50.38
60337;BME280;46978;50.288;28.624;2023-05-09T04:02:43;100270.45;;;10.00;49.08
60337;BME280;46978;50.288;28.624;2023-05-09T04:03:45;100266.98;;;10.12;49.53
60337;BME280;46978;50.288;28.624;2023-05-09T04:04:46;100266.98;;;10.18;47.65
60337;BME280;46978;50.288;28.624;2023-05-09T04:05:48;100264.39;;;10.13;47.19
60337;BME280;46978;50.288;28.624;2023-05-09T04:06:50;100270.42;;;10.15;47.16
60337;BME280;46978;50.288;28.624;2023-05-09T04:07:51;100266.09;;;10.13;46.76
60337;BME280;46978;50.288;28.624;2023-05-09T04:08:53;100265.23;;;10.17;47.55
60337;BME280;46978;50.288;28.624;2023-05-09T04:09:55;100266.07;;;10.27;46.70
60337;BME280;46978;50.288;28.624;2023-05-09T04:10:56;100266.95;;;10.29;46.70
60337;BME280;46978;50.288;28.624;2023-05-09T04:11:58;100261.75;;;10.32;46.32
60337;BME280;46978;50.288;28.624;2023-05-09T04:12:59;100263.45;;;10.48;45.77
60337;BME280;46978;50.288;28.624;2023-05-09T04:14:01;100263.45;;;10.48;45.77
60337;BME280;46978;50.288;28.624;2023-05-09T04:15:03;100265.16;;;10.58;46.04
60337;BME280;46978;50.288;28.624;2023-05-09T04:16:05;100267.73;;;10.63;45.79
60337;BME280;46978;50.288;28.624;2023-05-09T04:17:07;100265.95;;;10.73;45.95
60337;BME280;46978;50.288;28.624;2023-05-09T04:18:08;100271.09;;;10.85;46.19
60337;BME280;46978;50.288;28.624;2023-05-09T04:19:10;100262.36;;;11.02;45.67
60337;BME280;46978;50.288;28.624;2023-05-09T04:20:12;100263.16;;;11.13;43.73
60337;BME280;46978;50.288;28.624;2023-05-09T04:21:13;100261.35;;;11.23;44.38
60337;BME280;46978;50.288;28.624;2023-05-09T04:22:15;100263.05;;;11.32;43.69
60337;BME280;46978;50.288;28.624;2023-05-09T04:23:17;100267.41;;;11.26;42.29
60337;BME280;46978;50.288;28.624;2023-05-09T04:24:18;100261.34;;;11.24;43.50
60337;BME280;46978;50.288;28.624;2023-05-09T04:25:20;100263.05;;;11.30;43.30
60337;BME280;46978;50.288;28.624;2023-05-09T04:26:21;100267.37;;;11.33;42.30
60337;BME280;46978;50.288;28.624;2023-05-09T04:27:23;100265.68;;;11.25;42.29
60337;BME280;46978;50.288;28.624;2023-05-09T04:28:24;100262.28;;;11.16;42.78
60337;BME280;46978;50.288;28.624;2023-05-09T04:29:26;100270.91;;;11.19;43.23
60337;BME280;46978;50.288;28.624;2023-05-09T04:30:28;100276.17;;;11.08;42.34
60337;BME280;46978;50.288;28.624;2023-05-09T04:31:30;100277.06;;;11.01;42.75
60337;BME280;46978;50.288;28.624;2023-05-09T04:32:31;100275.38;;;10.96;42.84
60337;BME280;46978;50.288;28.624;2023-05-09T04:33:33;100273.66;;;10.91;43.02
60337;BME280;46978;50.288;28.624;2023-05-09T04:34:34;100273.64;;;10.96;42.97
60337;BME280;46978;50.288;28.624;2023-05-09T04:35:37;100276.19;;;11.04;43.07
60337;BME280;46978;50.288;28.624;2023-05-09T04:36:39;100270.13;;;11.06;42.10
60337;BME280;46978;50.288;28.624;2023-05-09T04:37:40;100277.94;;;11.03;42.52
60337;BME280;46978;50.288;28.624;2023-05-09T04:38:42;100277.05;;;11.04;42.84
60337;BME280;46978;50.288;28.624;2023-05-09T04:39:43;100269.25;;;11.04;42.66
60337;BME280;46978;50.288;28.624;2023-05-09T04:40:45;100276.20;;;11.02;42.55
60337;BME280;46978;50.288;28.624;2023-05-09T04:41:47;100278.86;;;10.90;42.42
60337;BME280;46978;50.288;28.624;2023-05-09T04:42:48;100273.69;;;10.85;42.68
60337;BME280;46978;50.288;28.624;2023-05-09T04:43:50;100277.14;;;10.86;42.82
60337;BME280;46978;50.288;28.624;2023-05-09T04:44:51;100273.69;;;10.85;42.81
60337;BME280;46978;50.288;28.624;2023-05-09T04:45:53;100271.13;;;10.78;42.55
60337;BME280;46978;50.288;28.624;2023-05-09T04:46:55;100276.42;;;10.48;42.50
60337;BME280;46978;50.288;28.624;2023-05-09T04:47:56;100272.16;;;10.36;42.51
60337;BME280;46978;50.288;28.624;2023-05-09T04:48:58;100282.52;;;10.27;43.04
60337;BME280;46978;50.288;28.624;2023-05-09T04:49:59;100275.63;;;10.04;43.37
60337;BME280;46978;50.288;28.624;2023-05-09T04:51:01;100269.61;;;9.92;43.95
60337;BME280;46978;50.288;28.624;2023-05-09T04:52:03;100282.57;;;9.87;44.36
60337;BME280;46978;50.288;28.624;2023-05-09T04:53:05;100280.83;;;9.77;44.73
60337;BME280;46978;50.288;28.624;2023-05-09T04:54:06;100276.50;;;9.83;44.84
60337;BME280;46978;50.288;28.624;2023-05-09T04:55:08;100278.24;;;9.78;44.76
60337;BME280;46978;50.288;28.624;2023-05-09T04:56:11;100288.61;;;9.63;44.70
60337;BME280;46978;50.288;28.624;2023-05-09T04:57:12;100282.56;;;9.56;44.60
60337;BME280;46978;50.288;28.624;2023-05-09T04:58:14;100280.83;;;9.55;45.24
60337;BME280;46978;50.288;28.624;2023-05-09T04:59:15;100284.27;;;9.51;45.15
60337;BME280;46978;50.288;28.624;2023-05-09T05:00:17;100290.31;;;9.38;45.09
60337;BME280;46978;50.288;28.624;2023-05-09T05:01:20;100279.95;;;9.38;45.61
60337;BME280;46978;50.288;28.624;2023-05-09T05:02:22;100286.83;;;9.34;45.87
60337;BME280;46978;50.288;28.624;2023-05-09T05:03:43;100294.60;;;9.34;45.40
60337;BME280;46978;50.288;28.624;2023-05-09T05:04:45;100284.23;;;9.17;45.50
60337;BME280;46978;50.288;28.624;2023-05-09T05:05:46;100290.23;;;9.04;45.84
60337;BME280;46978;50.288;28.624;2023-05-09T05:06:48;100295.41;;;9.05;45.94
60337;BME280;46978;50.288;28.624;2023-05-09T05:07:49;100294.57;;;9.08;46.63
60337;BME280;46978;50.288;28.624;2023-05-09T05:08:51;100293.63;;;8.92;45.95
60337;BME280;46978;50.288;28.624;2023-05-09T05:09:53;100301.30;;;8.69;46.45
60337;BME280;46978;50.288;28.624;2023-05-09T05:10:55;100293.51;;;8.63;46.90
60337;BME280;46978;50.288;28.624;2023-05-09T05:11:56;100286.62;;;8.60;47.26
60337;BME280;46978;50.288;28.624;2023-05-09T05:12:58;100288.37;;;8.70;47.19
60337;BME280;46978;50.288;28.624;2023-05-09T05:14:00;100292.72;;;8.76;47.10
60337;BME280;46978;50.288;28.624;2023-05-09T05:15:01;100291.89;;;8.82;47.43
60337;BME280;46978;50.288;28.624;2023-05-09T05:16:04;100296.23;;;8.93;47.06
60337;BME280;46978;50.288;28.624;2023-05-09T05:17:05;100293.67;;;9.06;46.71
60337;BME280;46978;50.288;28.624;2023-05-09T05:18:07;100289.42;;;9.19;46.79
60337;BME280;46978;50.288;28.624;2023-05-09T05:19:09;100289.41;;;9.28;46.58
60337;BME280;46978;50.288;28.624;2023-05-09T05:20:11;100286.84;;;9.37;46.50
60337;BME280;46978;50.288;28.624;2023-05-09T05:21:12;100289.44;;;9.40;46.07
60337;BME280;46978;50.288;28.624;2023-05-09T05:22:14;100296.34;;;9.38;45.20
60337;BME280;46978;50.288;28.624;2023-05-09T05:23:15;100290.31;;;9.36;45.52
60337;BME280;46978;50.288;28.624;2023-05-09T05:24:17;100295.46;;;9.22;45.47
60337;BME280;46978;50.288;28.624;2023-05-09T05:25:19;100292.88;;;9.24;45.48
60337;BME280;46978;50.288;28.624;2023-05-09T05:26:20;100307.50;;;9.05;45.39
60337;BME280;46978;50.288;28.624;2023-05-09T05:27:22;100300.55;;;8.93;45.80
60337;BME280;46978;50.288;28.624;2023-05-09T05:28:24;100298.82;;;8.95;45.84
60337;BME280;46978;50.288;28.624;2023-05-09T05:29:25;100304.03;;;9.04;46.00
60337;BME280;46978;50.288;28.624;2023-05-09T05:30:27;100297.14;;;9.00;46.07
60337;BME280;46978;50.288;28.624;2023-05-09T05:31:29;100296.28;;;9.09;45.89
60337;BME280;46978;50.288;28.624;2023-05-09T05:32:30;100304.06;;;9.15;45.92
60337;BME280;46978;50.288;28.624;2023-05-09T05:33:32;100298.91;;;9.27;46.11